createdAt,value
2018-09-18T02:52:54.720Z,19.47
2018-09-18T02:55:31.511Z,15.30
2018-09-18T02:58:04.758Z,13.17
2018-09-18T03:00:38.481Z,12.47
2018-09-18T03:03:11.142Z,13.07
2018-09-18T03:05:43.972Z,15.20
2018-09-18T03:08:18.565Z,19.90
2018-09-18T03:10:53.026Z,15.73
2018-09-18T03:13:27.313Z,15.23
2018-09-18T03:16:01.126Z,13.00
2018-09-18T03:18:37.355Z,15.77
2018-09-18T03:21:13.827Z,15.97
2018-09-18T03:23:49.687Z,19.53
2018-09-18T03:26:22.621Z,11.80
2018-09-18T03:28:55.410Z,12.40
2018-09-18T03:31:28.284Z,13.63
2018-09-18T03:34:02.930Z,15.93
2018-09-18T03:36:35.725Z,12.57
2018-09-18T03:39:10.223Z,17.00
2018-09-18T03:41:42.992Z,9.53
2018-09-18T03:44:15.791Z,12.40
2018-09-18T03:46:48.998Z,14.17
2018-09-18T03:49:22.123Z,9.60
2018-09-18T03:51:54.814Z,9.30
2018-09-18T03:54:27.509Z,13.40
2018-09-18T03:57:00.401Z,14.70
2018-09-18T03:59:34.193Z,12.17
2018-09-18T04:02:07.947Z,11.40
2018-09-18T04:04:40.627Z,15.47
2018-09-18T04:07:13.205Z,11.33
2018-09-18T04:09:45.885Z,12.30
2018-09-18T04:12:19.975Z,11.83
2018-09-18T04:14:52.690Z,15.60
2018-09-18T04:17:50.832Z,27.67
2018-09-18T04:20:29.406Z,13.10
2018-09-18T04:23:16.008Z,13.73
2018-09-18T04:25:53.020Z,14.73
2018-09-18T04:28:31.020Z,12.97
2018-09-18T04:31:16.043Z,12.70
2018-09-18T04:37:10.612Z,12.73
2018-09-18T04:39:44.593Z,8.37
2018-09-18T04:42:18.438Z,8.07
2018-09-18T04:44:50.931Z,11.17
2018-09-18T04:47:23.954Z,9.80
2018-09-18T04:49:57.708Z,11.50
2018-09-18T04:55:51.443Z,7.97
2018-09-18T05:01:56.077Z,9.43
2018-09-18T05:04:35.824Z,9.57
2018-09-18T05:07:11.828Z,9.97
2018-09-18T05:09:47.232Z,7.83
2018-09-18T05:12:21.447Z,11.23
2018-09-18T05:14:55.246Z,10.50
2018-09-18T05:17:28.873Z,9.63
2018-09-18T05:20:02.487Z,12.47
2018-09-18T05:22:36.072Z,11.13
2018-09-18T05:25:10.016Z,10.33
2018-09-18T05:27:43.593Z,20.53
2018-09-18T05:30:17.022Z,25.73
2018-09-18T05:32:50.366Z,26.67
2018-09-18T05:35:24.279Z,27.07
2018-09-18T05:37:57.953Z,21.37
2018-09-18T05:40:30.704Z,22.87
2018-09-18T05:43:04.925Z,16.87
2018-09-18T05:45:38.165Z,9.80
2018-09-18T05:48:16.721Z,9.80
2018-09-18T05:50:50.106Z,8.80
2018-09-18T05:53:23.353Z,11.27
2018-09-18T05:55:56.652Z,15.47
2018-09-18T05:58:30.591Z,12.33
2018-09-18T06:01:03.669Z,11.50
2018-09-18T06:03:37.303Z,12.43
2018-09-18T06:06:10.616Z,15.17
2018-09-18T06:08:44.582Z,12.63
2018-09-18T06:11:18.024Z,10.17
2018-09-18T06:13:51.693Z,7.60
2018-09-18T06:16:24.912Z,8.47
2018-09-18T06:18:58.080Z,10.53
2018-09-18T06:21:31.231Z,8.67
2018-09-18T06:24:05.080Z,7.77
2018-09-18T06:26:38.461Z,7.67
2018-09-18T06:29:11.768Z,7.80
2018-09-18T06:31:45.355Z,11.93
2018-09-18T06:34:18.618Z,9.57
2018-09-18T06:36:52.119Z,7.90
2018-09-18T06:39:26.144Z,9.80
2018-09-18T06:41:59.456Z,12.60
2018-09-18T06:44:32.537Z,10.57
2018-09-18T06:47:06.173Z,8.87
2018-09-18T06:49:40.309Z,8.47
2018-09-18T06:52:13.360Z,8.47
2018-09-18T06:54:46.860Z,9.87
2018-09-18T06:57:20.073Z,9.60
2018-09-18T06:59:53.399Z,10.17
2018-09-18T07:02:26.953Z,10.47
2018-09-18T07:05:00.164Z,11.60
2018-09-18T07:07:33.633Z,9.37
2018-09-18T07:10:07.497Z,8.87
2018-09-18T07:12:41.052Z,10.43
2018-09-18T07:15:15.028Z,9.10
2018-09-18T07:17:48.608Z,9.43
2018-09-18T07:20:22.161Z,8.73
2018-09-18T07:22:56.432Z,8.73
2018-09-18T07:25:29.778Z,7.97
2018-09-18T07:28:03.753Z,8.67
2018-09-18T07:30:37.240Z,7.73
2018-09-18T07:33:10.289Z,6.77
2018-09-18T07:35:44.591Z,6.30
2018-09-18T07:38:18.189Z,7.27
2018-09-18T07:40:51.568Z,7.10
2018-09-18T07:43:25.240Z,7.73
2018-09-18T07:45:58.361Z,7.00
2018-09-18T07:48:37.882Z,7.83
2018-09-18T07:51:11.401Z,7.10
2018-09-18T07:53:44.735Z,7.33
2018-09-18T07:56:17.967Z,7.27
2018-09-18T07:58:51.325Z,6.73
2018-09-18T08:01:24.975Z,7.10
2018-09-18T08:03:58.584Z,7.50
2018-09-18T08:06:32.005Z,8.23
2018-09-18T08:09:06.134Z,8.20
2018-09-18T08:11:39.863Z,8.00
2018-09-18T08:14:13.224Z,9.63
2018-09-18T08:16:46.508Z,7.30
2018-09-18T08:19:19.979Z,10.20
2018-09-18T08:21:53.309Z,9.57
2018-09-18T08:24:26.841Z,9.37
2018-09-18T08:27:00.636Z,10.63
2018-09-18T08:29:34.364Z,7.67
2018-09-18T08:32:07.671Z,9.60
2018-09-18T08:34:41.563Z,8.47
2018-09-18T08:37:14.952Z,9.00
2018-09-18T08:40:18.820Z,8.97
2018-09-18T08:42:52.024Z,8.40
2018-09-18T08:45:25.542Z,7.00
2018-09-18T08:47:58.665Z,7.80
2018-09-18T08:50:32.619Z,7.60
2018-09-18T08:53:05.952Z,7.67
2018-09-18T08:55:39.794Z,9.07
2018-09-18T08:58:13.248Z,10.67
2018-09-18T09:00:46.804Z,7.93
2018-09-18T09:03:20.069Z,8.50
2018-09-18T09:05:53.617Z,7.20
2018-09-18T09:08:27.187Z,8.13
2018-09-18T09:11:00.752Z,8.03
2018-09-18T09:13:34.401Z,6.77
2018-09-18T09:16:07.827Z,8.60
2018-09-18T09:18:41.195Z,6.33
2018-09-18T09:21:14.685Z,7.70
2018-09-18T09:23:48.136Z,6.07
2018-09-18T09:26:21.665Z,6.07
2018-09-18T09:28:55.044Z,6.33
2018-09-18T09:31:28.376Z,6.30
2018-09-18T09:34:01.844Z,6.47
2018-09-18T09:36:35.176Z,5.83
2018-09-18T09:39:12.770Z,5.20
2018-09-18T09:41:46.401Z,4.87
2018-09-18T09:44:19.637Z,6.00
2018-09-18T09:46:53.433Z,5.13
2018-09-18T09:49:26.557Z,5.03
2018-09-18T09:52:00.042Z,4.60
2018-09-18T09:54:33.697Z,5.20
2018-09-18T09:57:07.130Z,4.83
2018-09-18T09:59:40.500Z,9.57
2018-09-18T10:02:18.897Z,15.23
2018-09-18T10:04:52.778Z,19.47
2018-09-18T10:07:25.974Z,7.50
2018-09-18T10:09:59.916Z,6.93
2018-09-18T10:12:33.322Z,6.57
2018-09-18T10:15:06.954Z,9.30
2018-09-18T10:17:41.284Z,6.97
2018-09-18T10:20:15.070Z,6.70
2018-09-18T10:22:48.937Z,6.23
2018-09-18T10:25:22.277Z,8.57
2018-09-18T10:27:55.815Z,6.87
2018-09-18T10:30:29.272Z,7.93
2018-09-18T10:33:02.885Z,11.53
2018-09-18T10:35:36.085Z,9.50
2018-09-18T10:38:10.064Z,14.80
2018-09-18T10:40:43.642Z,9.43
2018-09-18T10:43:17.051Z,8.30
2018-09-18T10:45:50.824Z,9.10
2018-09-18T10:48:24.153Z,10.50
2018-09-18T10:50:57.366Z,17.07
2018-09-18T10:53:30.724Z,8.27
2018-09-18T10:56:04.110Z,11.20
2018-09-18T10:58:37.407Z,9.50
2018-09-18T11:01:11.053Z,8.40
2018-09-18T11:04:12.405Z,10.93
2018-09-18T11:06:45.460Z,10.07
2018-09-18T11:09:18.317Z,11.73
2018-09-18T11:11:51.272Z,14.40
2018-09-18T11:14:25.105Z,9.73
2018-09-18T11:16:58.446Z,8.63
2018-09-18T11:19:31.557Z,8.23
2018-09-18T11:22:04.920Z,10.07
2018-09-18T11:24:38.149Z,11.53
2018-09-18T11:27:11.019Z,11.80
2018-09-18T11:29:44.234Z,9.97
2018-09-18T11:32:17.112Z,8.00
2018-09-18T11:34:49.960Z,12.50
2018-09-18T11:37:23.025Z,10.77
2018-09-18T11:39:56.247Z,8.67
2018-09-18T11:42:29.422Z,15.37
2018-09-18T11:45:02.697Z,11.93
2018-09-18T11:47:35.508Z,13.77
2018-09-18T11:50:08.749Z,9.27
2018-09-18T11:52:42.842Z,11.97
2018-09-18T11:55:16.442Z,9.23
2018-09-18T11:57:49.915Z,11.33
2018-09-18T12:00:22.714Z,8.37
2018-09-18T12:02:55.658Z,16.27
2018-09-18T12:05:28.657Z,8.67
2018-09-18T12:08:02.054Z,11.33
2018-09-18T12:10:35.923Z,8.57
2018-09-18T12:13:08.668Z,10.10
2018-09-18T12:15:42.128Z,10.17
2018-09-18T12:18:14.877Z,7.37
2018-09-18T12:20:48.751Z,9.77
2018-09-18T12:23:23.897Z,9.80
2018-09-18T12:25:59.262Z,6.93
2018-09-18T12:28:32.600Z,16.60
2018-09-18T12:31:32.103Z,15.77
2018-09-18T12:34:07.023Z,9.60
2018-09-18T12:36:43.398Z,17.20
2018-09-18T12:39:17.029Z,21.30
2018-09-18T12:41:49.388Z,17.10
2018-09-18T12:44:22.803Z,10.77
2018-09-18T12:46:55.483Z,9.77
2018-09-18T12:49:27.854Z,13.63
2018-09-18T12:52:01.263Z,6.60
2018-09-18T12:54:34.582Z,7.77
2018-09-18T12:57:08.922Z,9.47
2018-09-18T12:59:42.046Z,5.47
2018-09-18T13:02:14.823Z,6.33
2018-09-18T13:04:47.229Z,7.63
2018-09-18T13:07:19.727Z,7.87
2018-09-18T13:09:54.062Z,8.13
2018-09-18T13:12:26.378Z,10.47
2018-09-18T13:14:58.812Z,8.07
2018-09-18T13:17:32.743Z,7.10
2018-09-18T13:20:05.965Z,8.27
2018-09-18T13:22:38.865Z,8.13
2018-09-18T13:25:11.296Z,8.23
2018-09-18T13:27:43.637Z,9.33
2018-09-18T13:30:16.774Z,10.90
2018-09-18T13:32:49.290Z,6.90
2018-09-18T13:35:22.238Z,10.57
2018-09-18T13:37:55.312Z,6.70
2018-09-18T13:40:27.873Z,6.77
2018-09-18T13:43:01.633Z,7.50
2018-09-18T13:45:37.090Z,9.80
2018-09-18T13:48:10.010Z,9.50
2018-09-18T13:50:43.383Z,9.77
2018-09-18T13:53:16.315Z,10.00
2018-09-18T13:59:19.921Z,5.93
2018-09-18T14:01:52.821Z,6.97
2018-09-18T14:04:25.288Z,8.60
2018-09-18T14:06:57.963Z,10.10
2018-09-18T14:09:30.329Z,6.97
2018-09-18T14:12:02.707Z,8.28
2018-09-18T14:14:35.141Z,12.47
2018-09-18T14:17:07.408Z,7.62
2018-09-18T14:19:39.901Z,7.00
2018-09-18T14:22:12.686Z,7.87
2018-09-18T14:24:45.161Z,7.10
2018-09-18T14:27:17.499Z,7.70
2018-09-18T14:29:49.904Z,12.00
2018-09-18T14:32:22.202Z,12.10
2018-09-18T14:35:08.019Z,7.67
2018-09-18T14:37:59.206Z,8.93
2018-09-18T14:43:57.571Z,7.05
2018-09-18T14:46:34.035Z,8.00
2018-09-18T14:49:27.184Z,7.40
2018-09-18T14:52:21.673Z,10.65
2018-09-18T14:55:00.195Z,6.40
2018-09-18T14:57:39.675Z,10.35
2018-09-18T15:00:19.920Z,9.03
2018-09-18T15:03:04.326Z,6.58
2018-09-18T15:05:40.616Z,6.67
2018-09-18T15:39:30.336Z,7.80
2018-09-18T15:42:04.111Z,6.37
2018-09-18T15:44:37.859Z,5.78
2018-09-18T15:47:10.098Z,8.00
2018-09-18T15:49:43.918Z,5.62
2018-09-18T15:52:20.063Z,6.80
2018-09-18T15:54:52.566Z,4.70
2018-09-18T15:57:25.268Z,5.55
2018-09-18T15:59:57.556Z,7.60
2018-09-18T16:02:30.009Z,6.47
2018-09-18T16:05:05.057Z,4.33
2018-09-18T16:07:38.599Z,9.90
2018-09-18T16:10:27.722Z,5.12
2018-09-18T16:13:17.268Z,4.90
2018-09-18T16:16:13.328Z,5.87
2018-09-18T16:22:05.643Z,5.00
2018-09-18T16:25:02.618Z,6.50
2018-09-18T16:27:57.406Z,4.62
2018-09-18T16:30:56.941Z,5.85
2018-09-18T16:33:43.193Z,4.75
2018-09-18T16:36:43.704Z,15.95
2018-09-18T16:39:39.746Z,5.22
2018-09-18T16:42:36.294Z,4.90
2018-09-18T16:45:32.874Z,8.20
2018-09-18T16:48:25.590Z,7.37
2018-09-18T16:54:28.292Z,5.30
2018-09-18T16:57:08.121Z,5.10
2018-09-18T16:59:41.196Z,5.55
2018-09-18T17:02:30.589Z,7.25
2018-09-18T17:05:06.084Z,9.13
2018-09-18T17:08:00.261Z,9.88
2018-09-18T17:10:57.735Z,5.05
2018-09-18T17:13:52.886Z,5.08
2018-09-18T17:16:46.658Z,9.68
2018-09-18T17:19:55.052Z,5.62
2018-09-18T17:22:28.150Z,7.28
2018-09-18T17:25:01.453Z,4.60
2018-09-18T17:27:34.324Z,5.17
2018-09-18T17:30:07.649Z,6.95
2018-09-18T17:32:40.287Z,9.65
2018-09-18T17:35:13.403Z,8.65
2018-09-18T17:37:46.916Z,5.45
2018-09-18T17:40:20.111Z,4.45
2018-09-18T17:42:53.252Z,11.88
2018-09-18T17:45:26.226Z,6.05
2018-09-18T17:47:59.735Z,5.60
2018-09-18T17:50:33.668Z,4.95
2018-09-18T17:53:06.975Z,9.65
2018-09-18T17:55:40.645Z,9.63
2018-09-18T17:58:14.471Z,8.35
2018-09-18T18:00:52.913Z,6.85
2018-09-18T18:03:31.814Z,10.53
2018-09-18T18:06:09.149Z,6.78
2018-09-18T18:12:03.999Z,5.53
2018-09-18T18:14:37.451Z,7.83
2018-09-18T18:17:11.538Z,7.20
2018-09-18T18:23:07.258Z,4.45
2018-09-18T18:25:42.972Z,4.30
2018-09-18T18:31:38.266Z,5.47
2018-09-18T18:34:13.166Z,8.25
2018-09-18T18:36:48.713Z,4.22
2018-09-18T18:39:25.904Z,5.50
2018-09-18T18:41:59.711Z,5.03
2018-09-18T18:44:32.848Z,6.65
2018-09-18T18:50:36.882Z,7.35
2018-09-18T18:53:10.062Z,5.22
2018-09-18T18:55:43.138Z,9.78
2018-09-18T18:58:16.318Z,7.50
2018-09-18T19:00:49.421Z,9.18
2018-09-18T19:03:22.632Z,4.65
2018-09-18T19:05:55.275Z,7.58
2018-09-18T19:08:28.275Z,3.20
2018-09-18T19:11:01.877Z,7.45
2018-09-18T19:13:34.806Z,5.85
2018-09-18T19:16:08.973Z,3.72
2018-09-18T19:18:42.071Z,4.50
2018-09-18T19:21:38.292Z,4.50
2018-09-18T19:24:11.853Z,4.40
2018-09-18T19:26:44.889Z,3.40
2018-09-18T19:29:18.173Z,6.03
2018-09-18T19:31:51.590Z,5.17
2018-09-18T19:34:24.736Z,5.17
2018-09-18T19:36:58.228Z,9.40
2018-09-18T19:39:30.680Z,6.17
2018-09-18T19:42:05.628Z,3.85
2018-09-18T19:44:38.303Z,7.80
2018-09-18T19:47:12.123Z,6.58
2018-09-18T19:49:44.983Z,6.25
2018-09-18T19:52:17.927Z,5.37
2018-09-18T19:54:51.218Z,8.03
2018-09-18T19:57:24.279Z,5.92
2018-09-18T20:00:14.960Z,6.70
2018-09-18T20:02:48.136Z,6.40
2018-09-18T20:05:21.528Z,6.10
2018-09-18T20:07:55.269Z,10.75
2018-09-18T20:10:28.146Z,5.60
2018-09-18T20:13:01.734Z,6.50
2018-09-18T20:15:35.051Z,3.87
2018-09-18T20:18:09.744Z,5.97
2018-09-18T20:20:42.869Z,3.37
2018-09-18T20:23:15.885Z,4.53
2018-09-18T20:25:48.776Z,7.72
2018-09-18T20:28:28.263Z,4.25
2018-09-18T20:31:01.241Z,4.72
2018-09-18T20:33:35.847Z,4.33
2018-09-18T20:36:08.968Z,4.53
2018-09-18T20:38:42.172Z,9.08
2018-09-18T20:41:14.976Z,5.00
2018-09-18T20:43:48.035Z,4.97
2018-09-18T20:46:21.812Z,8.65
2018-09-18T20:48:55.408Z,3.95
2018-09-18T20:51:28.207Z,7.47
2018-09-18T20:54:04.779Z,4.75
2018-09-18T20:56:41.755Z,6.45
2018-09-18T20:59:14.824Z,3.37
2018-09-18T21:01:48.082Z,2.87
2018-09-18T21:04:56.956Z,6.53
2018-09-18T21:07:30.527Z,4.60
2018-09-18T21:10:04.308Z,5.95
2018-09-18T21:12:37.857Z,6.22
2018-09-18T21:15:12.610Z,5.92
2018-09-18T21:17:46.167Z,4.35
2018-09-18T21:20:20.640Z,5.60
2018-09-18T21:22:54.328Z,9.63
2018-09-18T21:25:37.766Z,7.90
2018-09-18T21:28:13.009Z,5.22
2018-09-18T21:30:51.175Z,5.55
2018-09-18T21:33:26.315Z,6.37
2018-09-18T21:36:00.061Z,3.22
2018-09-18T21:38:33.945Z,4.40
2018-09-18T21:41:07.820Z,3.42
2018-09-18T21:43:41.281Z,7.30
2018-09-18T21:46:14.775Z,6.33
2018-09-18T21:48:48.906Z,6.50
2018-09-18T21:51:22.375Z,5.15
2018-09-18T21:53:56.813Z,8.28
2018-09-18T21:56:33.491Z,7.50
2018-09-18T21:59:07.301Z,3.95
2018-09-18T22:01:41.381Z,5.87
2018-09-18T22:04:14.407Z,4.72
2018-09-18T22:06:47.852Z,8.73
2018-09-18T22:09:22.906Z,5.90
2018-09-18T22:11:56.395Z,6.12
2018-09-18T22:14:30.911Z,6.28
2018-09-18T22:17:04.441Z,12.13
2018-09-18T22:19:37.437Z,4.60
2018-09-18T22:22:10.453Z,6.42
2018-09-18T22:24:43.474Z,6.90
2018-09-18T22:27:17.043Z,7.58
2018-09-18T22:29:51.454Z,6.42
2018-09-18T22:32:25.233Z,4.20
2018-09-18T22:34:59.367Z,5.58
2018-09-18T22:38:16.645Z,4.83
2018-09-18T22:40:50.053Z,3.87
2018-09-18T22:43:22.884Z,6.00
2018-09-18T22:45:55.968Z,9.05
2018-09-18T22:48:28.835Z,11.88
2018-09-18T22:51:01.301Z,8.35
2018-09-18T22:53:36.017Z,8.70
2018-09-18T22:56:16.333Z,5.67
2018-09-18T22:59:00.910Z,12.05
2018-09-18T23:01:34.306Z,5.83
2018-09-18T23:04:07.845Z,4.33
2018-09-18T23:06:40.845Z,5.70
2018-09-18T23:09:13.565Z,5.50
2018-09-18T23:15:08.065Z,4.97
2018-09-18T23:17:40.377Z,6.42
2018-09-18T23:20:12.760Z,6.75
2018-09-18T23:22:45.962Z,5.33
2018-09-18T23:25:18.450Z,5.50
2018-09-18T23:27:50.840Z,7.00
2018-09-18T23:30:23.812Z,8.03
2018-09-18T23:32:56.102Z,5.72
2018-09-18T23:35:29.220Z,6.92
2018-09-18T23:38:01.366Z,6.35
2018-09-18T23:40:33.919Z,8.80
2018-09-18T23:43:07.132Z,5.83
2018-09-18T23:45:41.107Z,8.38
2018-09-18T23:48:23.335Z,8.53
2018-09-18T23:51:02.892Z,10.80
2018-09-18T23:53:35.633Z,11.07
2018-09-18T23:56:07.872Z,8.57
2018-09-18T23:58:41.302Z,10.77
